Keflavikurflugvollur, Iceland
Current Conditions -  °F | °C
As of 12:30 AM on Sunday 26 Oct 2014 (Local Time) from BIKF Reporting Station
Clear Clear  
Wind Chill: 34°   Ceiling: Unl
Heat Index: 37°   Visibility: 6mi
Dew Point: 32°   Wind: 5mph
Humidity: 81%   Direction: 90°E
Pressure: 28.82"   Gusts: NA
Location:  63.97°N, 22.6°W
Report Text: BIKF 260030Z 09004KT CAVOK 03/M00 Q0976
Loading
Personal Weather Stations






























Interactive Weather Map
Tropical Storm Tracking
New forecast layout! Learn more

10-Day Weather Forecast

Advertisements
Track Severe Weather on mobile